Time;durP1;ratioP1;P1;durP2;ratioP2;P2;SDS_P1;SDS_P2;PMS_P1;PMS_P2;Temp;Humidity;BMP_temperature;BMP_pressure;BME280_temperature;BME280_humidity;BME280_pressure;Samples;Min_cycle;Max_cycle;Signal;HPM_P1;HPM_P2
2023/09/16 00:01:51;;;;;;;20.08;12.23;;;;;;;14.86;100.00;92913.38;4999004;28;20058;-85
2023/09/16 00:04:17;;;;;;;19.05;12.90;;;;;;;14.86;100.00;92903.66;4981533;28;20046;-86
2023/09/16 00:06:43;;;;;;;20.55;13.52;;;;;;;14.88;100.00;92913.88;4998297;28;20042;-86
2023/09/16 00:09:09;;;;;;;18.80;13.68;;;;;;;14.88;100.00;92913.88;4998161;28;20057;-85
2023/09/16 00:11:35;;;;;;;21.38;14.63;;;;;;;14.90;100.00;92909.06;4984140;28;20057;-85
2023/09/16 00:14:00;;;;;;;20.70;14.43;;;;;;;14.90;100.00;92924.91;4990783;28;20414;-85
2023/09/16 00:16:26;;;;;;;21.33;14.68;;;;;;;14.86;100.00;92913.38;4993654;28;20034;-86
2023/09/16 00:18:52;;;;;;;22.42;14.45;;;;;;;14.84;100.00;92916.34;4978744;28;20046;-86
2023/09/16 00:21:18;;;;;;;21.45;13.68;;;;;;;14.89;100.00;92918.06;4978390;28;20133;-85
2023/09/16 00:23:43;;;;;;;21.27;14.75;;;;;;;14.88;100.00;92912.03;4988147;28;20407;-86
2023/09/16 00:26:09;;;;;;;22.80;14.75;;;;;;;14.96;100.00;92915.78;4977077;28;20035;-85
2023/09/16 00:28:36;;;;;;;20.55;14.45;;;;;;;14.99;100.00;92920.44;4970937;28;20125;-84
2023/09/16 00:31:03;;;;;;;23.58;14.25;;;;;;;15.00;100.00;92914.09;4970173;28;20053;-84
2023/09/16 00:33:29;;;;;;;23.02;14.20;;;;;;;14.97;100.00;92904.16;4991243;28;20038;-86
2023/09/16 00:35:56;;;;;;;19.25;13.57;;;;;;;14.97;100.00;92899.69;4983153;28;20019;-86
2023/09/16 00:38:23;;;;;;;20.63;13.55;;;;;;;14.99;100.00;92902.78;4987539;28;20045;-86
2023/09/16 00:40:49;;;;;;;20.63;13.60;;;;;;;14.99;100.00;92908.06;4987925;28;20237;-85
2023/09/16 00:43:14;;;;;;;21.55;14.57;;;;;;;14.99;100.00;92896.72;4989074;28;20030;-85
2023/09/16 00:45:41;;;;;;;20.95;14.43;;;;;;;15.01;100.00;92894.56;4988114;28;20077;-85
2023/09/16 00:48:08;;;;;;;18.85;13.02;;;;;;;14.99;100.00;92896.72;4978001;28;20034;-85
2023/09/16 00:50:34;;;;;;;22.23;13.18;;;;;;;15.04;100.00;92896.59;4975842;28;20018;-86
2023/09/16 00:53:00;;;;;;;18.77;12.63;;;;;;;15.04;100.00;92899.25;4991086;28;20054;-85
2023/09/16 00:55:28;;;;;;;17.90;13.27;;;;;;;15.00;100.00;92900.94;4981740;28;20035;-85
2023/09/16 00:57:56;;;;;;;17.75;12.43;;;;;;;15.00;100.00;92903.56;4966505;28;20042;-85
2023/09/16 01:00:26;;;;;;;16.50;11.20;;;;;;;14.99;100.00;92905.44;4990580;28;20096;-85
2023/09/16 01:02:54;;;;;;;14.75;11.02;;;;;;;14.96;100.00;92900.75;4984463;28;20415;-86
2023/09/16 01:05:19;;;;;;;14.60;10.93;;;;;;;14.97;100.00;92897.03;4989798;28;20026;-85
2023/09/16 01:07:46;;;;;;;15.00;10.77;;;;;;;14.97;100.00;92899.69;4987872;28;20038;-85
2023/09/16 01:10:18;;;;;;;14.20;10.27;;;;;;;14.98;100.00;92885.41;4989178;28;20038;-85
2023/09/16 01:12:44;;;;;;;;;;;;;;;15.01;100.00;92885.88;4996831;28;20526;-85
2023/09/16 01:15:13;;;;;;;15.77;10.55;;;;;;;14.99;100.00;92886.97;4995252;28;19917;-85
2023/09/16 01:18:07;;;;;;;15.43;10.60;;;;;;;14.98;100.00;92889.91;5009808;28;20038;-85
2023/09/16 01:20:32;;;;;;;15.85;10.88;;;;;;;14.98;100.00;92887.28;4967736;28;20042;-85
2023/09/16 01:22:58;;;;;;;18.13;10.77;;;;;;;14.98;100.00;92879.34;5010208;28;20042;-85
2023/09/16 01:25:28;;;;;;;14.35;10.40;;;;;;;14.98;100.00;92885.41;5002533;28;20353;-86
2023/09/16 01:27:55;;;;;;;17.00;12.35;;;;;;;14.97;100.00;92886.50;4993008;28;20038;-85
2023/09/16 01:30:23;;;;;;;19.38;12.73;;;;;;;14.95;100.00;92880.75;5008512;28;20057;-85
2023/09/16 01:32:58;;;;;;;20.50;11.85;;;;;;;14.97;100.00;92875.94;4992230;28;20065;-85
2023/09/16 01:35:29;;;;;;;18.85;13.07;;;;;;;14.98;100.00;92874.09;4999934;28;20429;-85
2023/09/16 01:37:56;;;;;;;22.77;13.23;;;;;;;14.98;100.00;92874.84;5008818;28;20045;-85
2023/09/16 01:40:26;;;;;;;21.38;13.77;;;;;;;14.97;100.00;92877.78;5007356;28;20026;-85
2023/09/16 01:42:52;;;;;;;21.98;14.02;;;;;;;14.95;100.00;92877.31;4984570;28;20035;-84
2023/09/16 01:45:18;;;;;;;20.70;13.15;;;;;;;14.94;100.00;92878.41;4990047;28;20057;-85
2023/09/16 01:47:45;;;;;;;22.35;15.23;;;;;;;14.93;100.00;92872.38;5002859;28;20022;-85
2023/09/16 01:50:10;;;;;;;20.55;14.27;;;;;;;14.92;100.00;92875.28;5005707;28;20100;-85
2023/09/16 01:52:36;;;;;;;22.02;13.50;;;;;;;14.91;100.00;92876.38;4991166;28;20037;-85
2023/09/16 01:55:02;;;;;;;20.45;13.55;;;;;;;14.91;100.00;92879.03;5000178;28;20516;-85
2023/09/16 01:57:27;;;;;;;24.63;16.13;;;;;;;14.92;100.00;92880.56;5004559;28;20108;-85
2023/09/16 01:59:53;;;;;;;25.40;15.82;;;;;;;14.92;100.00;92870.78;4994656;28;20042;-86
2023/09/16 02:02:19;;;;;;;21.95;13.98;;;;;;;14.98;100.00;92872.22;4982146;28;20029;-85
2023/09/16 02:04:45;;;;;;;17.02;12.48;;;;;;;14.98;100.00;92876.72;5003010;28;20042;-86
2023/09/16 02:07:12;;;;;;;19.90;12.45;;;;;;;14.93;100.00;92864.44;4995517;28;20279;-86
2023/09/16 02:09:40;;;;;;;19.27;13.35;;;;;;;14.95;100.00;92872.03;4990199;28;20026;-85
2023/09/16 02:12:06;;;;;;;28.92;15.48;;;;;;;14.95;100.00;92875.47;4992896;28;20050;-85
2023/09/16 02:14:36;;;;;;;23.70;16.40;;;;;;;14.94;100.00;92870.50;4983031;28;20113;-85
2023/09/16 02:17:02;;;;;;;28.75;16.10;;;;;;;14.92;100.00;92865.53;4971466;28;20125;-85
2023/09/16 02:19:29;;;;;;;26.85;15.93;;;;;;;14.94;100.00;92878.41;4988417;28;20064;-85
2023/09/16 02:21:54;;;;;;;21.30;14.10;;;;;;;14.91;100.00;92884.28;4978633;28;20537;-85
2023/09/16 02:24:21;;;;;;;25.95;15.30;;;;;;;14.92;100.00;92877.94;4996176;28;20047;-86
2023/09/16 02:26:47;;;;;;;23.63;14.90;;;;;;;14.93;100.00;92871.59;4997034;28;20026;-85
2023/09/16 02:29:12;;;;;;;23.15;14.38;;;;;;;14.95;100.00;92874.66;4996699;28;20084;-85
2023/09/16 02:31:38;;;;;;;20.27;14.20;;;;;;;14.94;100.00;92873.13;4987946;28;20034;-85
2023/09/16 02:34:04;;;;;;;23.33;14.50;;;;;;;14.95;100.00;92869.41;4996261;28;20529;-85
2023/09/16 02:36:29;;;;;;;18.58;13.18;;;;;;;14.93;100.00;92868.97;4974960;28;20094;-85
2023/09/16 02:38:55;;;;;;;15.85;11.73;;;;;;;14.93;100.00;92863.69;4992019;28;20050;-85
2023/09/16 02:41:20;;;;;;;18.20;12.85;;;;;;;14.96;100.00;92866.47;4986470;28;20034;-86
2023/09/16 02:43:47;;;;;;;17.70;12.35;;;;;;;14.97;100.00;92869.88;4962633;28;20038;-85
2023/09/16 02:46:14;;;;;;;16.55;11.55;;;;;;;14.97;100.00;92870.69;4983008;28;20402;-85
2023/09/16 02:48:40;;;;;;;19.02;12.30;;;;;;;14.97;100.00;92870.69;4986963;28;20030;-86
2023/09/16 02:51:09;;;;;;;18.83;12.82;;;;;;;15.00;100.00;92864.03;4991915;28;20040;-86
2023/09/16 02:53:38;;;;;;;18.75;13.70;;;;;;;15.04;100.00;92859.69;4981950;28;20046;-85
2023/09/16 02:56:04;;;;;;;20.05;13.40;;;;;;;15.06;100.00;92868.06;4980454;28;20398;-86
2023/09/16 02:58:30;;;;;;;17.27;12.13;;;;;;;15.08;100.00;92865.91;4979399;28;20486;-86
2023/09/16 03:00:56;;;;;;;16.88;11.60;;;;;;;15.06;100.00;92872.56;4986166;28;20105;-86
2023/09/16 03:03:21;;;;;;;15.18;10.02;;;;;;;15.07;100.00;92872.25;4978646;28;20050;-86
2023/09/16 03:05:47;;;;;;;17.00;10.18;;;;;;;15.10;100.00;92865.59;4976506;28;20049;-86
2023/09/16 03:08:15;;;;;;;13.80;9.73;;;;;;;15.08;100.00;92865.91;4987045;28;20137;-85
2023/09/16 03:10:41;;;;;;;14.13;10.00;;;;;;;15.11;100.00;92856.63;4986679;28;20050;-85
2023/09/16 03:13:08;;;;;;;14.63;10.38;;;;;;;15.05;100.00;92857.84;5002160;28;20030;-85
2023/09/16 03:15:45;;;;;;;15.23;11.35;;;;;;;15.04;100.00;92866.81;4984122;28;20414;-85
2023/09/16 03:18:11;;;;;;;18.00;11.48;;;;;;;15.01;100.00;92865.56;4984283;28;20026;-85
2023/09/16 03:20:40;;;;;;;17.45;11.43;;;;;;;15.00;100.00;92871.94;4994524;28;20042;-85
2023/09/16 03:23:05;;;;;;;20.23;11.85;;;;;;;14.98;100.00;92868.81;4970140;28;20166;-85
2023/09/16 03:25:31;;;;;;;16.63;11.18;;;;;;;15.00;100.00;92864.03;4992591;28;20039;-84
2023/09/16 03:27:57;;;;;;;16.88;11.05;;;;;;;15.00;100.00;92869.28;4994403;28;20045;-84
2023/09/16 03:30:22;;;;;;;15.13;11.48;;;;;;;14.98;100.00;92868.81;4993957;28;20038;-84
2023/09/16 03:32:48;;;;;;;15.85;11.00;;;;;;;14.97;100.00;92864.59;5001336;28;20038;-84
2023/09/16 03:35:15;;;;;;;22.50;11.52;;;;;;;14.98;100.00;92866.94;4986758;28;20046;-85
2023/09/16 03:37:41;;;;;;;14.73;11.20;;;;;;;14.95;100.00;92870.19;4988911;28;20053;-85
2023/09/16 03:40:07;;;;;;;17.00;12.10;;;;;;;14.93;100.00;92863.69;4990096;28;20054;-85
2023/09/16 03:42:33;;;;;;;16.88;12.57;;;;;;;14.93;100.00;92868.97;4985502;28;20069;-85
2023/09/16 03:44:59;;;;;;;21.13;12.32;;;;;;;14.92;100.00;92859.47;5009957;28;20061;-85
2023/09/16 03:47:26;;;;;;;19.05;12.93;;;;;;;14.92;100.00;92868.16;4994452;28;20050;-85
2023/09/16 03:49:52;;;;;;;16.38;11.55;;;;;;;14.97;100.00;92873.31;4989242;28;20097;-85
2023/09/16 03:52:18;;;;;;;18.60;12.10;;;;;;;14.92;100.00;92864.75;4992344;28;20043;-85
2023/09/16 03:54:43;;;;;;;18.42;12.43;;;;;;;14.91;100.00;92865.84;4974059;28;20034;-85
2023/09/16 03:57:10;;;;;;;19.70;12.77;;;;;;;14.88;100.00;92864.59;4996763;28;20137;-85
2023/09/16 03:59:36;;;;;;;21.30;13.52;;;;;;;14.87;100.00;92862.25;4984230;28;20150;-85
2023/09/16 04:02:01;;;;;;;20.50;13.80;;;;;;;14.88;100.00;92866.44;4978031;28;20478;-85
2023/09/16 04:04:27;;;;;;;23.65;13.80;;;;;;;14.88;100.00;92861.16;4998038;28;20092;-85
2023/09/16 04:06:54;;;;;;;20.33;13.63;;;;;;;14.87;100.00;92863.03;4997592;28;20168;-85
2023/09/16 04:09:20;;;;;;;19.13;13.75;;;;;;;14.83;100.00;92862.06;4979319;28;20767;-85
2023/09/16 04:11:46;;;;;;;20.13;14.80;;;;;;;14.85;100.00;92859.91;4986163;28;20047;-84
2023/09/16 04:14:11;;;;;;;19.52;13.00;;;;;;;14.85;100.00;92862.53;4987218;28;20256;-84
2023/09/16 04:16:39;;;;;;;18.60;12.55;;;;;;;14.85;100.00;92861.78;4987516;28;20042;-85
2023/09/16 04:19:04;;;;;;;17.95;12.95;;;;;;;14.84;100.00;92857.56;4987194;28;20042;-85
2023/09/16 04:21:30;;;;;;;18.08;13.10;;;;;;;14.81;100.00;92863.44;4986694;28;20110;-85
2023/09/16 04:23:56;;;;;;;18.40;12.73;;;;;;;14.83;100.00;92863.94;4985840;28;20038;-86
2023/09/16 04:26:23;;;;;;;17.38;12.35;;;;;;;14.83;100.00;92858.66;4988931;28;20093;-85
2023/09/16 04:28:48;;;;;;;19.77;12.48;;;;;;;14.78;100.00;92844.53;4993507;28;20034;-86
2023/09/16 04:31:14;;;;;;;18.83;13.30;;;;;;;14.85;100.00;92859.13;4987013;28;20038;-85
2023/09/16 04:33:40;;;;;;;19.80;14.13;;;;;;;14.85;100.00;92856.50;4984428;28;20045;-85
2023/09/16 04:36:07;;;;;;;21.52;14.55;;;;;;;14.80;100.00;92857.41;4985373;28;20042;-85
2023/09/16 04:38:33;;;;;;;18.73;13.55;;;;;;;14.79;100.00;92853.19;4988936;28;20038;-85
2023/09/16 04:41:00;;;;;;;18.13;12.95;;;;;;;14.80;100.00;92857.41;4984811;28;20047;-85
2023/09/16 04:43:25;;;;;;;19.30;13.25;;;;;;;14.80;100.00;92854.00;4995931;28;20076;-85
2023/09/16 04:45:51;;;;;;;20.00;12.90;;;;;;;14.77;100.00;92853.53;4985498;28;20038;-85
2023/09/16 04:48:40;;;;;;;19.40;13.13;;;;;;;14.77;100.00;92855.38;4981201;28;20066;-85
2023/09/16 04:51:06;;;;;;;19.65;13.43;;;;;;;14.76;100.00;92848.56;4984224;28;20039;-85
2023/09/16 04:53:34;;;;;;;24.00;14.85;;;;;;;14.74;100.00;92854.13;4996332;28;20498;-85
2023/09/16 04:56:00;;;;;;;20.20;13.70;;;;;;;14.75;100.00;92845.16;4996948;28;20066;-85
2023/09/16 04:58:26;;;;;;;19.95;13.65;;;;;;;14.76;100.00;92854.59;4993553;28;20027;-86
2023/09/16 05:00:52;;;;;;;21.85;14.10;;;;;;;14.76;100.00;92851.19;4988670;28;20031;-85
2023/09/16 05:03:18;;;;;;;22.90;15.05;;;;;;;14.76;100.00;92854.59;4990282;28;20453;-85
2023/09/16 05:05:47;;;;;;;20.60;14.38;;;;;;;14.75;100.00;92860.97;4988795;28;20367;-84
2023/09/16 05:08:13;;;;;;;21.17;15.27;;;;;;;14.75;100.00;92863.59;4985274;28;20043;-84
2023/09/16 05:10:38;;;;;;;23.08;14.95;;;;;;;14.74;100.00;92862.03;4992661;28;20426;-85
2023/09/16 05:13:04;;;;;;;21.80;15.18;;;;;;;14.74;100.00;92864.66;4989390;28;20038;-85
2023/09/16 05:15:30;;;;;;;20.98;14.82;;;;;;;14.75;100.00;92860.19;4979160;28;20129;-85
2023/09/16 05:17:56;;;;;;;22.83;15.13;;;;;;;14.75;100.00;92862.81;4979777;28;20089;-85
2023/09/16 05:20:22;;;;;;;25.75;16.55;;;;;;;14.74;100.00;92863.88;4959927;28;20051;-85
2023/09/16 05:22:48;;;;;;;23.17;16.27;;;;;;;14.74;100.00;92867.28;4985571;28;20117;-86
2023/09/16 05:25:14;;;;;;;24.20;16.35;;;;;;;14.74;100.00;92854.13;4976777;28;20026;-85
2023/09/16 05:27:40;;;;;;;26.90;17.40;;;;;;;14.77;100.00;92869.34;4970810;28;20045;-85
2023/09/16 05:30:06;;;;;;;24.63;16.33;;;;;;;14.78;100.00;92870.88;4987726;28;20045;-85
2023/09/16 05:32:32;;;;;;;24.67;15.65;;;;;;;14.78;100.00;92870.09;4971665;28;20047;-86
2023/09/16 05:34:57;;;;;;;26.15;16.55;;;;;;;14.81;100.00;92863.44;4990014;28;20041;-86
2023/09/16 05:37:23;;;;;;;27.25;17.35;;;;;;;14.81;100.00;92879.25;4979148;28;20042;-85
2023/09/16 05:39:49;;;;;;;25.92;16.05;;;;;;;14.78;100.00;92873.50;4989563;28;20050;-85
2023/09/16 05:42:14;;;;;;;23.13;16.08;;;;;;;14.81;100.00;92879.25;4976237;28;20039;-85
2023/09/16 05:44:40;;;;;;;24.80;16.92;;;;;;;14.82;100.00;92875.56;4968958;28;20121;-85
2023/09/16 05:47:06;;;;;;;22.90;15.25;;;;;;;14.81;100.00;92879.25;4974107;28;20069;-85
2023/09/16 05:49:33;;;;;;;22.35;14.00;;;;;;;14.83;100.00;92887.66;4960972;28;20151;-85
2023/09/16 05:51:59;;;;;;;19.90;12.75;;;;;;;14.86;100.00;92889.66;4988979;28;20030;-86
2023/09/16 05:54:27;;;;;;;19.75;12.77;;;;;;;14.85;100.00;92888.13;4975565;28;20129;-84
2023/09/16 05:56:53;;;;;;;17.77;12.20;;;;;;;14.88;100.00;92879.59;4976732;28;20034;-85
2023/09/16 05:59:19;;;;;;;15.05;11.52;;;;;;;14.88;100.00;92883.03;4976967;28;20037;-86
2023/09/16 06:01:44;;;;;;;16.38;11.25;;;;;;;14.89;100.00;92876.69;4969744;28;20039;-86
2023/09/16 06:04:10;;;;;;;50.63;12.48;;;;;;;14.92;100.00;92881.34;4968539;28;20043;-85
2023/09/16 06:06:36;;;;;;;1332.32;40.15;;;;;;;14.87;100.00;92888.59;4975037;28;20111;-85
2023/09/16 06:09:03;;;;;;;1356.03;44.30;;;;;;;14.73;100.00;92888.69;4973307;28;20043;-85
2023/09/16 06:11:29;;;;;;;497.15;20.42;;;;;;;14.69;100.00;92893.78;4987058;28;20058;-85
2023/09/16 06:13:56;;;;;;;333.58;13.13;;;;;;;14.64;100.00;92888.63;4994939;28;20038;-85
2023/09/16 06:16:21;;;;;;;29.98;8.52;;;;;;;14.61;100.00;92883.94;4982560;28;20508;-85
2023/09/16 06:18:47;;;;;;;15.77;10.10;;;;;;;14.65;100.00;92879.63;4973119;28;20140;-86
2023/09/16 06:21:15;;;;;;;15.90;10.38;;;;;;;14.70;100.00;92887.44;4994182;28;20048;-86
2023/09/16 06:23:42;;;;;;;16.92;9.85;;;;;;;14.75;100.00;92889.16;4976672;28;20037;-86
2023/09/16 06:26:10;;;;;;;17.55;10.50;;;;;;;14.76;100.00;92894.13;4999602;28;20038;-85
2023/09/16 06:28:37;;;;;;;22.15;11.05;;;;;;;14.82;100.00;92896.66;4998337;28;20034;-85
2023/09/16 06:31:04;;;;;;;22.00;12.77;;;;;;;14.83;100.00;92912.13;5004485;28;20014;-85
2023/09/16 06:33:30;;;;;;;19.80;12.80;;;;;;;14.85;100.00;92903.94;4989652;28;20042;-86
2023/09/16 06:35:56;;;;;;;18.90;11.65;;;;;;;14.83;100.00;92901.59;4998996;28;20049;-86
2023/09/16 06:38:21;;;;;;;16.83;11.40;;;;;;;14.85;100.00;92909.22;5006066;28;20503;-87
2023/09/16 06:40:47;;;;;;;14.45;10.57;;;;;;;14.87;100.00;92899.16;4978337;28;20398;-86
2023/09/16 06:43:13;;;;;;;14.82;8.77;;;;;;;14.87;100.00;92901.78;5001157;28;20050;-87
2023/09/16 06:45:39;;;;;;;13.82;8.82;;;;;;;14.88;100.00;92905.97;4992139;28;20038;-88
2023/09/16 06:48:05;;;;;;;16.65;9.38;;;;;;;14.84;100.00;92899.72;4985375;28;20041;-88
2023/09/16 06:50:30;;;;;;;12.95;8.65;;;;;;;14.88;100.00;92909.41;4987746;28;20493;-89
2023/09/16 06:52:56;;;;;;;16.33;10.95;;;;;;;14.92;100.00;92917.47;4985507;28;20409;-87
2023/09/16 06:55:21;;;;;;;34.33;11.50;;;;;;;14.93;100.00;92914.53;4990657;28;20567;-86
2023/09/16 06:57:47;;;;;;;1045.65;37.85;;;;;;;14.79;100.00;92916.44;4987741;28;20590;-87
2023/09/16 07:00:13;;;;;;;1285.05;44.75;;;;;;;14.72;100.00;92930.06;5002444;28;20501;-86
2023/09/16 07:02:39;;;;;;;225.43;9.10;;;;;;;14.68;100.00;92923.03;5003745;28;20092;-87
2023/09/16 07:05:04;;;;;;;7.30;4.70;;;;;;;14.65;100.00;92928.94;4975785;28;20118;-86
2023/09/16 07:07:30;;;;;;;7.18;4.95;;;;;;;14.63;100.00;92923.19;4975922;28;20089;-87
2023/09/16 07:09:56;;;;;;;8.77;5.47;;;;;;;14.64;100.00;92914.97;4981982;28;20042;-87
2023/09/16 07:12:22;;;;;;;9.10;5.65;;;;;;;14.70;100.00;92923.53;4969728;28;20372;-86
2023/09/16 07:14:48;;;;;;;11.55;6.65;;;;;;;14.68;100.00;92923.84;4979092;28;20100;-87
2023/09/16 07:17:14;;;;;;;10.48;7.15;;;;;;;14.71;100.00;92927.72;4993070;28;20497;-87
2023/09/16 07:19:40;;;;;;;10.75;6.70;;;;;;;14.78;100.00;92923.59;5002467;28;20040;-87
2023/09/16 07:22:05;;;;;;;12.15;8.18;;;;;;;14.82;100.00;92928.28;5003912;28;20444;-89
2023/09/16 07:24:31;;;;;;;12.90;9.10;;;;;;;14.85;100.00;92932.94;4973755;28;20593;-87
2023/09/16 07:26:57;;;;;;;13.73;9.05;;;;;;;14.89;100.00;92928.63;4986547;28;20034;-79
2023/09/16 07:29:22;;;;;;;14.55;9.55;;;;;;;14.92;100.00;92928.00;4989032;28;20032;-81
2023/09/16 07:31:49;;;;;;;15.45;10.18;;;;;;;14.93;100.00;92934.84;5009080;28;20042;-81
2023/09/16 07:34:19;;;;;;;16.15;10.57;;;;;;;14.95;100.00;92932.66;5008078;28;20117;-82
2023/09/16 07:36:46;;;;;;;805.45;30.30;;;;;;;14.93;100.00;92943.53;5007959;28;20037;-82
2023/09/16 07:39:12;;;;;;;167.73;12.82;;;;;;;14.88;100.00;92943.66;5006256;28;20050;-82
2023/09/16 07:41:38;;;;;;;9.68;7.03;;;;;;;14.86;100.00;92937.13;5008978;28;20026;-82
2023/09/16 07:44:04;;;;;;;11.05;7.05;;;;;;;14.89;100.00;92939.16;4974921;28;20121;-82
2023/09/16 07:46:30;;;;;;;14.48;8.35;;;;;;;14.88;100.00;92948.13;4990337;28;20092;-87
2023/09/16 07:48:55;;;;;;;13.15;8.80;;;;;;;14.91;100.00;92952.81;5003764;28;20034;-84
2023/09/16 07:51:21;;;;;;;17.35;10.18;;;;;;;14.95;100.00;92948.47;4976267;28;20049;-84
2023/09/16 07:53:46;;;;;;;18.83;10.10;;;;;;;14.98;100.00;92934.72;5001491;28;20047;-85
2023/09/16 07:56:16;;;;;;;13.35;9.95;;;;;;;15.08;100.00;92952.91;5000294;28;20038;-84
2023/09/16 07:58:41;;;;;;;17.42;11.27;;;;;;;15.15;100.00;92947.19;5004545;28;20029;-83
2023/09/16 08:01:07;;;;;;;18.63;11.07;;;;;;;15.23;100.00;92959.66;5003853;28;20048;-84
2023/09/16 08:03:33;;;;;;;21.00;12.43;;;;;;;15.30;100.00;92956.59;5009712;28;20548;-84
2023/09/16 08:05:59;;;;;;;21.23;12.35;;;;;;;15.38;100.00;92961.13;5009523;28;20026;-83
2023/09/16 08:08:24;;;;;;;17.63;11.07;;;;;;;15.39;100.00;92962.69;4991948;28;20060;-85
2023/09/16 08:10:51;;;;;;;17.02;10.80;;;;;;;15.44;100.00;92959.91;4989130;28;20038;-86
2023/09/16 08:13:20;;;;;;;14.95;10.15;;;;;;;15.46;100.00;92963.00;4992108;28;20038;-85
2023/09/16 08:15:46;;;;;;;14.00;10.27;;;;;;;15.46;100.00;92968.28;5002779;28;20045;-86
2023/09/16 08:18:11;;;;;;;14.73;9.93;;;;;;;15.50;100.00;92966.59;4981583;28;20042;-85
2023/09/16 08:20:37;;;;;;;12.52;9.20;;;;;;;15.51;100.00;92976.06;5010123;28;20065;-83
2023/09/16 08:23:03;;;;;;;14.63;9.30;;;;;;;15.55;100.00;92973.59;5010047;28;20038;-84
2023/09/16 08:25:28;;;;;;;15.88;8.88;;;;;;;15.55;100.00;92971.75;5001584;28;20107;-85
2023/09/16 08:27:54;;;;;;;15.77;9.45;;;;;;;15.58;100.00;92970.34;5010202;28;20036;-85
2023/09/16 08:30:21;;;;;;;15.80;9.73;;;;;;;15.60;100.00;92979.53;5008952;28;20045;-85
2023/09/16 08:32:47;;;;;;;16.40;9.98;;;;;;;15.66;100.00;92976.75;5003010;28;20042;-84
2023/09/16 08:35:13;;;;;;;15.07;10.05;;;;;;;15.70;100.00;92983.75;5009156;28;20065;-83
2023/09/16 08:37:38;;;;;;;15.65;10.43;;;;;;;15.73;100.00;92990.31;5006672;28;20033;-86
2023/09/16 08:40:04;;;;;;;16.52;10.15;;;;;;;15.74;100.00;92991.88;5005734;28;20049;-85
2023/09/16 08:42:49;;;;;;;13.65;9.75;;;;;;;15.73;100.00;92993.72;5008753;28;20035;-84
2023/09/16 08:45:19;;;;;;;14.80;10.93;;;;;;;15.77;100.00;92996.53;5011622;28;20077;-83
2023/09/16 08:47:57;;;;;;;14.25;10.85;;;;;;;15.78;100.00;92995.44;5005104;28;20061;-85
2023/09/16 08:50:25;;;;;;;17.17;11.68;;;;;;;15.80;100.00;93001.19;5007661;28;20041;-84
2023/09/16 08:52:53;;;;;;;16.17;10.50;;;;;;;15.87;100.00;92993.59;5014080;28;20026;-85
2023/09/16 08:55:20;;;;;;;15.93;10.70;;;;;;;15.93;100.00;92992.41;4998099;28;20108;-83
2023/09/16 08:58:00;;;;;;;14.65;11.57;;;;;;;16.04;100.00;92992.91;5002119;28;20038;-82
2023/09/16 09:00:26;;;;;;;17.10;11.35;;;;;;;16.16;100.00;92992.28;5001528;28;20042;-81
2023/09/16 09:02:53;;;;;;;17.73;12.70;;;;;;;16.26;100.00;92989.38;5007175;28;20513;-83
2023/09/16 09:05:19;;;;;;;16.80;11.90;;;;;;;16.38;100.00;92994.81;5009914;28;20038;-83
2023/09/16 09:07:45;;;;;;;16.70;11.85;;;;;;;16.50;100.00;92988.91;4993896;28;20111;-83
2023/09/16 09:10:11;;;;;;;18.83;12.80;;;;;;;16.59;100.00;92983.63;5010502;28;20564;-84
2023/09/16 09:12:39;;;;;;;18.05;13.05;;;;;;;16.65;100.00;92983.16;4993789;28;20069;-83
2023/09/16 09:15:12;;;;;;;15.65;12.05;;;;;;;16.73;100.00;92981.63;5005814;28;20030;-85
2023/09/16 09:17:41;;;;;;;16.80;12.38;;;;;;;16.82;100.00;92989.59;5006314;28;20037;-84
2023/09/16 09:20:23;;;;;;;19.35;12.75;;;;;;;16.90;100.00;92985.38;5007725;28;20049;-84
2023/09/16 09:22:50;;;;;;;15.55;12.65;;;;;;;16.98;100.00;92988.00;5004986;28;20042;-84
2023/09/16 09:25:27;;;;;;;15.60;12.38;;;;;;;17.08;100.00;92980.84;4990241;28;20065;-83
2023/09/16 09:27:54;;;;;;;16.95;12.82;;;;;;;17.19;100.00;92977.53;5005858;28;20029;-85
2023/09/16 09:30:26;;;;;;;16.67;13.43;;;;;;;17.35;100.00;92977.03;4995364;28;20125;-85
2023/09/16 09:32:55;;;;;;;17.98;12.90;;;;;;;17.51;100.00;92974.66;4988591;28;20034;-84
2023/09/16 09:35:22;;;;;;;18.85;13.48;;;;;;;17.59;100.00;92979.16;4993662;28;20034;-85
2023/09/16 09:37:49;;;;;;;18.48;13.93;;;;;;;17.65;100.00;92983.16;5001671;28;20476;-83
2023/09/16 09:40:15;;;;;;;17.63;12.30;;;;;;;17.78;100.00;92976.88;5001165;28;20034;-83
2023/09/16 09:42:42;;;;;;;17.60;12.93;;;;;;;17.89;100.00;92982.63;4998309;28;20033;-84
2023/09/16 09:45:09;;;;;;;17.70;12.98;;;;;;;17.84;100.00;92977.50;5009259;28;20042;-83
2023/09/16 09:47:36;;;;;;;18.27;13.48;;;;;;;17.80;100.00;92984.50;5001336;28;20440;-85
2023/09/16 09:50:03;;;;;;;18.13;13.57;;;;;;;17.80;100.00;92984.50;5007327;28;20065;-81
2023/09/16 09:52:30;;;;;;;20.52;14.15;;;;;;;17.83;100.00;92979.41;5006219;28;20030;-84
2023/09/16 09:54:57;;;;;;;17.23;12.50;;;;;;;17.88;100.00;92979.22;5007105;28;20116;-84
2023/09/16 09:57:24;;;;;;;19.80;13.45;;;;;;;17.95;100.00;92976.06;4995207;28;20558;-84
2023/09/16 09:59:50;;;;;;;18.88;13.25;;;;;;;17.97;100.00;92978.38;4991122;28;20049;-85
2023/09/16 10:02:16;;;;;;;19.35;13.82;;;;;;;17.96;100.00;92974.94;5000175;28;20041;-85
2023/09/16 10:04:41;;;;;;;18.10;12.48;;;;;;;18.00;100.00;92975.88;5007588;28;20037;-86
2023/09/16 10:07:07;;;;;;;16.60;11.52;;;;;;;17.93;100.00;92977.47;4988038;28;20299;-86
2023/09/16 10:09:33;;;;;;;15.40;11.90;;;;;;;17.78;100.00;92968.94;5002335;28;20520;-87
2023/09/16 10:12:01;;;;;;;15.00;10.90;;;;;;;17.77;100.00;92970.03;4982992;28;20070;-86
2023/09/16 10:14:27;;;;;;;15.85;11.50;;;;;;;17.73;100.00;92968.34;4968439;28;20031;-85
2023/09/16 10:16:53;;;;;;;17.13;11.57;;;;;;;17.62;100.00;92976.63;4982149;28;20089;-87
2023/09/16 10:19:21;;;;;;;14.82;11.07;;;;;;;17.60;100.00;92986.00;4986563;28;20030;-85
2023/09/16 10:21:47;;;;;;;18.25;11.98;;;;;;;17.48;100.00;92974.19;4986729;28;20573;-85
2023/09/16 10:24:13;;;;;;;15.70;12.20;;;;;;;17.41;100.00;92979.19;4954783;28;20035;-87
2023/09/16 10:26:39;;;;;;;20.30;13.45;;;;;;;17.39;100.00;92980.63;4976783;28;20038;-87
2023/09/16 10:29:06;;;;;;;16.60;12.25;;;;;;;17.30;100.00;92977.22;4984793;28;20041;-86
2023/09/16 10:31:33;;;;;;;13.82;10.98;;;;;;;17.32;100.00;92975.03;4968189;28;20041;-86
2023/09/16 10:33:59;;;;;;;12.50;9.75;;;;;;;17.25;100.00;92975.53;4986662;28;20042;-84
2023/09/16 10:36:26;;;;;;;13.35;9.80;;;;;;;17.21;100.00;92972.72;4954554;28;20509;-85
2023/09/16 10:38:54;;;;;;;11.48;9.35;;;;;;;17.15;100.00;92967.91;4971419;28;20088;-86
2023/09/16 10:41:21;;;;;;;14.63;10.20;;;;;;;17.16;100.00;92972.88;4990414;28;20121;-87
2023/09/16 10:43:47;;;;;;;13.88;9.95;;;;;;;17.17;100.00;92973.66;4965316;28;20479;-84
2023/09/16 10:46:13;;;;;;;15.60;10.90;;;;;;;17.17;100.00;92969.13;4968082;28;20096;-79
2023/09/16 10:48:39;;;;;;;13.15;10.43;;;;;;;17.23;100.00;92969.75;4982298;28;20034;-78
2023/09/16 10:51:18;;;;;;;14.55;11.30;;;;;;;17.25;100.00;92964.94;4984222;28;20075;-78
2023/09/16 10:53:48;;;;;;;15.18;11.55;;;;;;;17.27;100.00;92968.81;4991268;28;20030;-78
2023/09/16 10:56:25;;;;;;;15.27;11.45;;;;;;;17.25;100.00;92971.00;4983614;28;20364;-78
2023/09/16 10:58:59;;;;;;;16.52;11.23;;;;;;;17.26;100.00;92967.25;4986902;28;20038;-78
2023/09/16 11:01:31;;;;;;;15.65;10.93;;;;;;;17.32;100.00;92967.88;4979414;28;20042;-77
2023/09/16 11:04:05;;;;;;;13.10;10.30;;;;;;;17.38;100.00;92968.47;4984295;28;20057;-78
2023/09/16 11:06:30;;;;;;;15.85;11.20;;;;;;;17.38;100.00;92965.81;4981387;28;20486;-77
2023/09/16 11:08:56;;;;;;;15.30;11.43;;;;;;;17.36;100.00;92965.34;4985821;28;20117;-78